sensor_id;sensor_type;location;lat;lon;timestamp;P1;durP1;ratioP1;P2;durP2;ratioP2
19877;SDS011;10101;52.204;9.910;2023-02-27T00:00:06;4.73;;;2.77;;
19877;SDS011;10101;52.204;9.910;2023-02-27T00:02:38;4.73;;;3.07;;
19877;SDS011;10101;52.204;9.910;2023-02-27T00:05:05;6.33;;;2.97;;
19877;SDS011;10101;52.204;9.910;2023-02-27T00:07:32;5.37;;;2.73;;
19877;SDS011;10101;52.204;9.910;2023-02-27T00:09:59;5.40;;;3.20;;
19877;SDS011;10101;52.204;9.910;2023-02-27T00:12:26;4.97;;;3.00;;
19877;SDS011;10101;52.204;9.910;2023-02-27T00:14:54;5.27;;;2.77;;
19877;SDS011;10101;52.204;9.910;2023-02-27T00:17:22;3.67;;;2.53;;
19877;SDS011;10101;52.204;9.910;2023-02-27T00:19:52;3.90;;;2.73;;
19877;SDS011;10101;52.204;9.910;2023-02-27T00:22:19;6.47;;;3.30;;
19877;SDS011;10101;52.204;9.910;2023-02-27T00:24:46;6.13;;;3.63;;
19877;SDS011;10101;52.204;9.910;2023-02-27T00:27:12;6.60;;;3.60;;
19877;SDS011;10101;52.204;9.910;2023-02-27T00:29:39;5.40;;;3.70;;
19877;SDS011;10101;52.204;9.910;2023-02-27T00:32:06;5.10;;;3.23;;
19877;SDS011;10101;52.204;9.910;2023-02-27T00:34:34;7.27;;;3.70;;
19877;SDS011;10101;52.204;9.910;2023-02-27T00:37:01;5.30;;;3.47;;
19877;SDS011;10101;52.204;9.910;2023-02-27T00:39:27;4.57;;;3.07;;
19877;SDS011;10101;52.204;9.910;2023-02-27T00:41:54;8.07;;;3.00;;
19877;SDS011;10101;52.204;9.910;2023-02-27T00:44:21;7.23;;;2.90;;
19877;SDS011;10101;52.204;9.910;2023-02-27T00:46:48;5.03;;;2.70;;
19877;SDS011;10101;52.204;9.910;2023-02-27T00:49:15;5.80;;;2.93;;
19877;SDS011;10101;52.204;9.910;2023-02-27T00:51:43;3.57;;;2.60;;
19877;SDS011;10101;52.204;9.910;2023-02-27T00:54:10;5.40;;;2.87;;
19877;SDS011;10101;52.204;9.910;2023-02-27T00:56:36;6.83;;;3.77;;
19877;SDS011;10101;52.204;9.910;2023-02-27T00:59:05;8.03;;;3.40;;
19877;SDS011;10101;52.204;9.910;2023-02-27T01:01:32;4.13;;;2.60;;
19877;SDS011;10101;52.204;9.910;2023-02-27T01:03:58;5.30;;;2.90;;
19877;SDS011;10101;52.204;9.910;2023-02-27T01:06:25;5.80;;;2.80;;
19877;SDS011;10101;52.204;9.910;2023-02-27T01:08:53;7.10;;;2.60;;
19877;SDS011;10101;52.204;9.910;2023-02-27T01:11:21;5.33;;;2.77;;
19877;SDS011;10101;52.204;9.910;2023-02-27T01:13:48;6.83;;;2.90;;
19877;SDS011;10101;52.204;9.910;2023-02-27T01:16:14;4.80;;;3.13;;
19877;SDS011;10101;52.204;9.910;2023-02-27T01:18:41;5.13;;;3.17;;
19877;SDS011;10101;52.204;9.910;2023-02-27T01:21:08;5.23;;;3.00;;
19877;SDS011;10101;52.204;9.910;2023-02-27T01:23:34;4.87;;;2.83;;
19877;SDS011;10101;52.204;9.910;2023-02-27T01:26:02;6.37;;;3.23;;
19877;SDS011;10101;52.204;9.910;2023-02-27T01:28:29;5.07;;;2.80;;
19877;SDS011;10101;52.204;9.910;2023-02-27T01:30:56;5.43;;;2.87;;
19877;SDS011;10101;52.204;9.910;2023-02-27T01:33:23;3.67;;;2.70;;
19877;SDS011;10101;52.204;9.910;2023-02-27T01:35:49;5.43;;;3.03;;
19877;SDS011;10101;52.204;9.910;2023-02-27T01:38:16;5.30;;;2.70;;
19877;SDS011;10101;52.204;9.910;2023-02-27T01:40:43;5.07;;;2.83;;
19877;SDS011;10101;52.204;9.910;2023-02-27T01:43:13;4.13;;;2.80;;
19877;SDS011;10101;52.204;9.910;2023-02-27T01:45:41;4.37;;;2.53;;
19877;SDS011;10101;52.204;9.910;2023-02-27T01:48:13;4.23;;;2.70;;
19877;SDS011;10101;52.204;9.910;2023-02-27T01:50:45;5.00;;;2.63;;
19877;SDS011;10101;52.204;9.910;2023-02-27T01:53:16;4.77;;;2.67;;
19877;SDS011;10101;52.204;9.910;2023-02-27T01:55:44;4.00;;;2.40;;
19877;SDS011;10101;52.204;9.910;2023-02-27T01:58:14;4.33;;;2.37;;
19877;SDS011;10101;52.204;9.910;2023-02-27T02:00:41;5.63;;;2.43;;
19877;SDS011;10101;52.204;9.910;2023-02-27T02:03:11;5.70;;;2.27;;
19877;SDS011;10101;52.204;9.910;2023-02-27T02:05:43;3.20;;;1.93;;
19877;SDS011;10101;52.204;9.910;2023-02-27T02:08:12;3.23;;;2.23;;
19877;SDS011;10101;52.204;9.910;2023-02-27T02:10:41;6.37;;;2.80;;
19877;SDS011;10101;52.204;9.910;2023-02-27T02:13:09;4.03;;;2.50;;
19877;SDS011;10101;52.204;9.910;2023-02-27T02:15:38;6.00;;;2.80;;
19877;SDS011;10101;52.204;9.910;2023-02-27T02:18:15;5.53;;;2.90;;
19877;SDS011;10101;52.204;9.910;2023-02-27T02:20:55;4.70;;;2.63;;
19877;SDS011;10101;52.204;9.910;2023-02-27T02:26:43;3.10;;;2.17;;
19877;SDS011;10101;52.204;9.910;2023-02-27T02:35:37;5.77;;;2.30;;
19877;SDS011;10101;52.204;9.910;2023-02-27T02:38:46;6.97;;;2.53;;
19877;SDS011;10101;52.204;9.910;2023-02-27T02:41:46;6.30;;;2.40;;
19877;SDS011;10101;52.204;9.910;2023-02-27T02:44:24;4.07;;;2.40;;
19877;SDS011;10101;52.204;9.910;2023-02-27T02:47:01;4.17;;;2.30;;
19877;SDS011;10101;52.204;9.910;2023-02-27T02:49:32;4.10;;;2.50;;
19877;SDS011;10101;52.204;9.910;2023-02-27T02:52:07;4.70;;;2.50;;
19877;SDS011;10101;52.204;9.910;2023-02-27T02:54:41;3.33;;;2.27;;
19877;SDS011;10101;52.204;9.910;2023-02-27T02:57:13;5.00;;;2.53;;
19877;SDS011;10101;52.204;9.910;2023-02-27T02:59:44;3.80;;;2.30;;
19877;SDS011;10101;52.204;9.910;2023-02-27T03:02:19;4.67;;;2.37;;
19877;SDS011;10101;52.204;9.910;2023-02-27T03:04:50;6.90;;;2.33;;
19877;SDS011;10101;52.204;9.910;2023-02-27T03:07:21;2.43;;;1.87;;
19877;SDS011;10101;52.204;9.910;2023-02-27T03:09:56;4.80;;;2.50;;
19877;SDS011;10101;52.204;9.910;2023-02-27T03:12:29;3.80;;;2.47;;
19877;SDS011;10101;52.204;9.910;2023-02-27T03:14:58;5.00;;;2.63;;
19877;SDS011;10101;52.204;9.910;2023-02-27T03:17:30;6.77;;;2.77;;
19877;SDS011;10101;52.204;9.910;2023-02-27T03:20:04;4.17;;;2.30;;
19877;SDS011;10101;52.204;9.910;2023-02-27T03:22:34;5.37;;;2.70;;
19877;SDS011;10101;52.204;9.910;2023-02-27T03:25:06;3.97;;;2.47;;
19877;SDS011;10101;52.204;9.910;2023-02-27T03:27:36;3.50;;;2.20;;
19877;SDS011;10101;52.204;9.910;2023-02-27T03:30:08;2.67;;;2.00;;
19877;SDS011;10101;52.204;9.910;2023-02-27T03:32:39;4.13;;;2.17;;
19877;SDS011;10101;52.204;9.910;2023-02-27T03:35:10;5.03;;;2.40;;
19877;SDS011;10101;52.204;9.910;2023-02-27T03:37:40;4.20;;;2.13;;
19877;SDS011;10101;52.204;9.910;2023-02-27T03:40:19;3.90;;;2.37;;
19877;SDS011;10101;52.204;9.910;2023-02-27T03:42:52;6.50;;;2.60;;
19877;SDS011;10101;52.204;9.910;2023-02-27T03:45:27;4.03;;;2.10;;
19877;SDS011;10101;52.204;9.910;2023-02-27T03:48:01;3.77;;;2.57;;
19877;SDS011;10101;52.204;9.910;2023-02-27T03:50:30;4.83;;;2.17;;
19877;SDS011;10101;52.204;9.910;2023-02-27T03:52:57;4.07;;;2.27;;
19877;SDS011;10101;52.204;9.910;2023-02-27T03:55:27;2.73;;;2.03;;
19877;SDS011;10101;52.204;9.910;2023-02-27T03:57:58;4.87;;;2.50;;
19877;SDS011;10101;52.204;9.910;2023-02-27T04:00:25;3.73;;;2.00;;
19877;SDS011;10101;52.204;9.910;2023-02-27T04:02:55;4.53;;;2.27;;
19877;SDS011;10101;52.204;9.910;2023-02-27T04:05:25;4.07;;;2.53;;
19877;SDS011;10101;52.204;9.910;2023-02-27T04:07:56;3.60;;;2.40;;
19877;SDS011;10101;52.204;9.910;2023-02-27T04:10:38;3.30;;;2.53;;
19877;SDS011;10101;52.204;9.910;2023-02-27T04:13:26;2.43;;;2.10;;
19877;SDS011;10101;52.204;9.910;2023-02-27T04:16:18;6.87;;;2.47;;
19877;SDS011;10101;52.204;9.910;2023-02-27T04:19:02;4.03;;;2.40;;
19877;SDS011;10101;52.204;9.910;2023-02-27T04:21:42;4.87;;;2.53;;
19877;SDS011;10101;52.204;9.910;2023-02-27T04:24:15;3.80;;;2.60;;
19877;SDS011;10101;52.204;9.910;2023-02-27T04:26:51;3.73;;;2.37;;
19877;SDS011;10101;52.204;9.910;2023-02-27T04:29:23;5.10;;;2.30;;
19877;SDS011;10101;52.204;9.910;2023-02-27T04:31:57;4.90;;;2.40;;
19877;SDS011;10101;52.204;9.910;2023-02-27T04:34:28;4.53;;;2.73;;
19877;SDS011;10101;52.204;9.910;2023-02-27T04:37:01;4.50;;;2.67;;
19877;SDS011;10101;52.204;9.910;2023-02-27T04:39:34;6.30;;;2.50;;
19877;SDS011;10101;52.204;9.910;2023-02-27T04:42:09;5.53;;;2.60;;
19877;SDS011;10101;52.204;9.910;2023-02-27T04:44:39;4.33;;;2.43;;
19877;SDS011;10101;52.204;9.910;2023-02-27T04:47:08;3.70;;;2.50;;
19877;SDS011;10101;52.204;9.910;2023-02-27T04:49:39;5.67;;;2.70;;
19877;SDS011;10101;52.204;9.910;2023-02-27T04:52:09;9.13;;;2.97;;
19877;SDS011;10101;52.204;9.910;2023-02-27T04:54:39;3.60;;;2.37;;
19877;SDS011;10101;52.204;9.910;2023-02-27T04:57:13;6.23;;;2.63;;
19877;SDS011;10101;52.204;9.910;2023-02-27T04:59:45;5.93;;;2.67;;
19877;SDS011;10101;52.204;9.910;2023-02-27T05:02:15;4.63;;;2.27;;
19877;SDS011;10101;52.204;9.910;2023-02-27T05:04:48;2.87;;;2.50;;
19877;SDS011;10101;52.204;9.910;2023-02-27T05:07:20;5.00;;;2.47;;
19877;SDS011;10101;52.204;9.910;2023-02-27T05:09:51;5.13;;;2.40;;
19877;SDS011;10101;52.204;9.910;2023-02-27T05:12:23;4.00;;;2.50;;
19877;SDS011;10101;52.204;9.910;2023-02-27T05:14:57;7.63;;;2.40;;
19877;SDS011;10101;52.204;9.910;2023-02-27T05:17:30;4.00;;;2.40;;
19877;SDS011;10101;52.204;9.910;2023-02-27T05:19:59;3.53;;;2.30;;
19877;SDS011;10101;52.204;9.910;2023-02-27T05:22:31;6.40;;;2.43;;
19877;SDS011;10101;52.204;9.910;2023-02-27T05:25:06;4.13;;;2.43;;
19877;SDS011;10101;52.204;9.910;2023-02-27T05:27:38;7.90;;;2.47;;
19877;SDS011;10101;52.204;9.910;2023-02-27T05:30:13;4.13;;;2.30;;
19877;SDS011;10101;52.204;9.910;2023-02-27T05:32:47;3.30;;;2.50;;
19877;SDS011;10101;52.204;9.910;2023-02-27T05:35:19;3.57;;;2.40;;
19877;SDS011;10101;52.204;9.910;2023-02-27T05:37:52;5.70;;;2.40;;
19877;SDS011;10101;52.204;9.910;2023-02-27T05:40:27;4.60;;;2.30;;
19877;SDS011;10101;52.204;9.910;2023-02-27T05:43:01;3.87;;;2.40;;
19877;SDS011;10101;52.204;9.910;2023-02-27T05:45:30;3.70;;;2.30;;
19877;SDS011;10101;52.204;9.910;2023-02-27T05:48:01;3.27;;;2.20;;
19877;SDS011;10101;52.204;9.910;2023-02-27T05:50:33;6.10;;;2.07;;
19877;SDS011;10101;52.204;9.910;2023-02-27T05:53:03;6.53;;;2.87;;
19877;SDS011;10101;52.204;9.910;2023-02-27T05:55:35;3.53;;;2.70;;
19877;SDS011;10101;52.204;9.910;2023-02-27T05:58:07;5.27;;;2.70;;
19877;SDS011;10101;52.204;9.910;2023-02-27T06:00:42;5.00;;;2.67;;
19877;SDS011;10101;52.204;9.910;2023-02-27T06:03:13;4.63;;;2.40;;
19877;SDS011;10101;52.204;9.910;2023-02-27T06:05:41;5.00;;;2.47;;
19877;SDS011;10101;52.204;9.910;2023-02-27T06:08:09;7.90;;;2.43;;
19877;SDS011;10101;52.204;9.910;2023-02-27T06:10:36;4.00;;;2.87;;
19877;SDS011;10101;52.204;9.910;2023-02-27T06:13:03;5.93;;;2.60;;
19877;SDS011;10101;52.204;9.910;2023-02-27T06:15:31;3.17;;;2.67;;
19877;SDS011;10101;52.204;9.910;2023-02-27T06:17:58;4.27;;;2.47;;
19877;SDS011;10101;52.204;9.910;2023-02-27T06:20:25;5.30;;;2.37;;
19877;SDS011;10101;52.204;9.910;2023-02-27T06:22:52;6.13;;;2.80;;
19877;SDS011;10101;52.204;9.910;2023-02-27T06:25:18;4.20;;;2.60;;
19877;SDS011;10101;52.204;9.910;2023-02-27T06:27:46;4.60;;;2.60;;
19877;SDS011;10101;52.204;9.910;2023-02-27T06:30:13;4.03;;;2.67;;
19877;SDS011;10101;52.204;9.910;2023-02-27T06:32:41;3.80;;;2.53;;
19877;SDS011;10101;52.204;9.910;2023-02-27T06:35:08;5.03;;;2.60;;
19877;SDS011;10101;52.204;9.910;2023-02-27T06:37:35;4.07;;;2.50;;
19877;SDS011;10101;52.204;9.910;2023-02-27T06:40:02;3.87;;;2.50;;
19877;SDS011;10101;52.204;9.910;2023-02-27T06:42:32;4.53;;;2.70;;
19877;SDS011;10101;52.204;9.910;2023-02-27T06:44:59;3.70;;;2.40;;
19877;SDS011;10101;52.204;9.910;2023-02-27T06:47:26;4.63;;;2.70;;
19877;SDS011;10101;52.204;9.910;2023-02-27T06:49:54;5.47;;;2.53;;
19877;SDS011;10101;52.204;9.910;2023-02-27T06:52:21;4.73;;;2.70;;
19877;SDS011;10101;52.204;9.910;2023-02-27T06:54:47;3.40;;;2.27;;
19877;SDS011;10101;52.204;9.910;2023-02-27T06:57:14;3.73;;;2.40;;
19877;SDS011;10101;52.204;9.910;2023-02-27T06:59:41;5.00;;;2.33;;
19877;SDS011;10101;52.204;9.910;2023-02-27T07:02:09;3.93;;;2.40;;
19877;SDS011;10101;52.204;9.910;2023-02-27T07:04:37;3.03;;;2.33;;
19877;SDS011;10101;52.204;9.910;2023-02-27T07:07:06;3.83;;;2.50;;
19877;SDS011;10101;52.204;9.910;2023-02-27T07:09:33;8.60;;;3.00;;
19877;SDS011;10101;52.204;9.910;2023-02-27T07:12:01;3.73;;;2.30;;
19877;SDS011;10101;52.204;9.910;2023-02-27T07:14:28;3.60;;;2.37;;
19877;SDS011;10101;52.204;9.910;2023-02-27T07:16:55;4.33;;;2.50;;
19877;SDS011;10101;52.204;9.910;2023-02-27T07:19:22;6.83;;;2.70;;
19877;SDS011;10101;52.204;9.910;2023-02-27T07:21:49;4.27;;;2.67;;
19877;SDS011;10101;52.204;9.910;2023-02-27T07:24:17;4.77;;;2.50;;
19877;SDS011;10101;52.204;9.910;2023-02-27T07:26:44;3.63;;;2.40;;
19877;SDS011;10101;52.204;9.910;2023-02-27T07:29:12;7.97;;;2.50;;
19877;SDS011;10101;52.204;9.910;2023-02-27T07:31:39;4.53;;;2.70;;
19877;SDS011;10101;52.204;9.910;2023-02-27T07:34:06;3.20;;;2.10;;
19877;SDS011;10101;52.204;9.910;2023-02-27T07:36:35;8.83;;;2.50;;
19877;SDS011;10101;52.204;9.910;2023-02-27T07:39:02;5.53;;;3.03;;
19877;SDS011;10101;52.204;9.910;2023-02-27T07:41:31;6.03;;;3.03;;
19877;SDS011;10101;52.204;9.910;2023-02-27T07:43:57;5.43;;;3.00;;
19877;SDS011;10101;52.204;9.910;2023-02-27T07:46:24;5.87;;;2.87;;
19877;SDS011;10101;52.204;9.910;2023-02-27T07:48:51;8.10;;;2.80;;
19877;SDS011;10101;52.204;9.910;2023-02-27T07:51:18;5.13;;;3.37;;
19877;SDS011;10101;52.204;9.910;2023-02-27T07:53:45;6.07;;;3.13;;
19877;SDS011;10101;52.204;9.910;2023-02-27T07:56:12;5.43;;;3.00;;
19877;SDS011;10101;52.204;9.910;2023-02-27T07:58:40;5.77;;;3.20;;
19877;SDS011;10101;52.204;9.910;2023-02-27T08:01:07;6.90;;;3.40;;
19877;SDS011;10101;52.204;9.910;2023-02-27T08:03:34;7.20;;;3.20;;
19877;SDS011;10101;52.204;9.910;2023-02-27T08:06:01;6.20;;;3.60;;
19877;SDS011;10101;52.204;9.910;2023-02-27T08:08:28;3.87;;;3.20;;
19877;SDS011;10101;52.204;9.910;2023-02-27T08:10:55;6.30;;;3.47;;
19877;SDS011;10101;52.204;9.910;2023-02-27T08:13:22;7.50;;;3.03;;
19877;SDS011;10101;52.204;9.910;2023-02-27T08:15:50;5.63;;;2.83;;
19877;SDS011;10101;52.204;9.910;2023-02-27T08:18:18;7.03;;;3.43;;
19877;SDS011;10101;52.204;9.910;2023-02-27T08:20:44;5.57;;;3.30;;
19877;SDS011;10101;52.204;9.910;2023-02-27T08:23:11;9.37;;;3.37;;
19877;SDS011;10101;52.204;9.910;2023-02-27T08:25:38;8.17;;;3.67;;
19877;SDS011;10101;52.204;9.910;2023-02-27T08:28:05;6.07;;;3.10;;
19877;SDS011;10101;52.204;9.910;2023-02-27T08:30:32;5.60;;;3.20;;
19877;SDS011;10101;52.204;9.910;2023-02-27T08:33:00;5.33;;;3.40;;
19877;SDS011;10101;52.204;9.910;2023-02-27T08:35:27;9.17;;;3.33;;
19877;SDS011;10101;52.204;9.910;2023-02-27T08:37:53;5.17;;;3.30;;
19877;SDS011;10101;52.204;9.910;2023-02-27T08:40:20;9.20;;;4.03;;
19877;SDS011;10101;52.204;9.910;2023-02-27T08:42:47;9.27;;;3.67;;
19877;SDS011;10101;52.204;9.910;2023-02-27T08:45:15;6.53;;;3.40;;
19877;SDS011;10101;52.204;9.910;2023-02-27T08:47:42;6.20;;;3.57;;
19877;SDS011;10101;52.204;9.910;2023-02-27T08:50:11;4.50;;;3.20;;
19877;SDS011;10101;52.204;9.910;2023-02-27T08:52:38;6.00;;;2.77;;
19877;SDS011;10101;52.204;9.910;2023-02-27T08:55:05;8.77;;;3.40;;
19877;SDS011;10101;52.204;9.910;2023-02-27T08:57:33;5.87;;;3.07;;
19877;SDS011;10101;52.204;9.910;2023-02-27T09:00:00;8.50;;;3.33;;
19877;SDS011;10101;52.204;9.910;2023-02-27T09:02:30;5.13;;;3.07;;
19877;SDS011;10101;52.204;9.910;2023-02-27T09:04:56;4.93;;;3.43;;
19877;SDS011;10101;52.204;9.910;2023-02-27T09:07:24;7.03;;;3.73;;
19877;SDS011;10101;52.204;9.910;2023-02-27T09:09:51;8.27;;;3.27;;
19877;SDS011;10101;52.204;9.910;2023-02-27T09:12:18;7.90;;;3.50;;
19877;SDS011;10101;52.204;9.910;2023-02-27T09:14:45;9.70;;;3.50;;
19877;SDS011;10101;52.204;9.910;2023-02-27T09:17:11;7.47;;;3.33;;
19877;SDS011;10101;52.204;9.910;2023-02-27T09:19:38;6.53;;;3.80;;
19877;SDS011;10101;52.204;9.910;2023-02-27T09:22:05;8.57;;;3.63;;
19877;SDS011;10101;52.204;9.910;2023-02-27T09:24:33;9.03;;;3.40;;
19877;SDS011;10101;52.204;9.910;2023-02-27T09:26:59;5.53;;;3.37;;
19877;SDS011;10101;52.204;9.910;2023-02-27T09:29:26;7.67;;;3.57;;
19877;SDS011;10101;52.204;9.910;2023-02-27T09:31:53;12.00;;;3.77;;
19877;SDS011;10101;52.204;9.910;2023-02-27T09:34:20;8.13;;;3.40;;
19877;SDS011;10101;52.204;9.910;2023-02-27T09:36:47;7.27;;;3.60;;
19877;SDS011;10101;52.204;9.910;2023-02-27T09:39:13;9.03;;;3.53;;
19877;SDS011;10101;52.204;9.910;2023-02-27T09:41:46;6.03;;;2.93;;
19877;SDS011;10101;52.204;9.910;2023-02-27T09:44:20;7.30;;;3.60;;
19877;SDS011;10101;52.204;9.910;2023-02-27T09:46:54;5.27;;;2.97;;
19877;SDS011;10101;52.204;9.910;2023-02-27T09:49:22;5.87;;;3.33;;
19877;SDS011;10101;52.204;9.910;2023-02-27T09:51:53;6.03;;;3.00;;
19877;SDS011;10101;52.204;9.910;2023-02-27T09:54:19;6.47;;;3.03;;
19877;SDS011;10101;52.204;9.910;2023-02-27T09:56:49;6.23;;;3.20;;
19877;SDS011;10101;52.204;9.910;2023-02-27T09:59:23;5.17;;;3.10;;
19877;SDS011;10101;52.204;9.910;2023-02-27T10:02:00;8.77;;;3.10;;
19877;SDS011;10101;52.204;9.910;2023-02-27T10:04:35;7.97;;;3.00;;
19877;SDS011;10101;52.204;9.910;2023-02-27T10:07:11;6.43;;;3.10;;
19877;SDS011;10101;52.204;9.910;2023-02-27T10:09:47;5.67;;;3.10;;
19877;SDS011;10101;52.204;9.910;2023-02-27T10:12:32;9.93;;;3.90;;
19877;SDS011;10101;52.204;9.910;2023-02-27T10:15:09;5.53;;;2.80;;
19877;SDS011;10101;52.204;9.910;2023-02-27T10:17:50;6.13;;;2.90;;
19877;SDS011;10101;52.204;9.910;2023-02-27T10:20:21;7.93;;;2.93;;
19877;SDS011;10101;52.204;9.910;2023-02-27T10:22:53;9.07;;;3.37;;
19877;SDS011;10101;52.204;9.910;2023-02-27T10:25:22;5.00;;;2.53;;
19877;SDS011;10101;52.204;9.910;2023-02-27T10:27:52;9.53;;;3.07;;
19877;SDS011;10101;52.204;9.910;2023-02-27T10:30:24;5.63;;;3.00;;
19877;SDS011;10101;52.204;9.910;2023-02-27T10:32:54;4.27;;;2.70;;
19877;SDS011;10101;52.204;9.910;2023-02-27T10:35:27;7.13;;;2.93;;
19877;SDS011;10101;52.204;9.910;2023-02-27T10:37:58;7.30;;;2.37;;
19877;SDS011;10101;52.204;9.910;2023-02-27T10:40:27;7.60;;;2.40;;
19877;SDS011;10101;52.204;9.910;2023-02-27T10:42:56;3.93;;;2.17;;
19877;SDS011;10101;52.204;9.910;2023-02-27T10:45:26;3.50;;;2.00;;
19877;SDS011;10101;52.204;9.910;2023-02-27T10:47:53;4.80;;;2.20;;
19877;SDS011;10101;52.204;9.910;2023-02-27T10:50:22;6.80;;;2.33;;
19877;SDS011;10101;52.204;9.910;2023-02-27T10:52:51;7.63;;;2.63;;
19877;SDS011;10101;52.204;9.910;2023-02-27T10:55:21;5.33;;;2.20;;
19877;SDS011;10101;52.204;9.910;2023-02-27T10:57:50;4.23;;;1.50;;
19877;SDS011;10101;52.204;9.910;2023-02-27T11:00:26;4.23;;;2.00;;
19877;SDS011;10101;52.204;9.910;2023-02-27T11:02:58;3.50;;;1.50;;
19877;SDS011;10101;52.204;9.910;2023-02-27T11:05:28;2.87;;;1.27;;
19877;SDS011;10101;52.204;9.910;2023-02-27T11:08:10;4.63;;;1.73;;
19877;SDS011;10101;52.204;9.910;2023-02-27T11:10:51;4.00;;;1.80;;
19877;SDS011;10101;52.204;9.910;2023-02-27T11:13:20;3.73;;;1.90;;
19877;SDS011;10101;52.204;9.910;2023-02-27T11:16:01;4.43;;;1.70;;
19877;SDS011;10101;52.204;9.910;2023-02-27T11:18:30;3.43;;;1.80;;
19877;SDS011;10101;52.204;9.910;2023-02-27T11:21:15;2.50;;;1.00;;
19877;SDS011;10101;52.204;9.910;2023-02-27T11:23:51;1.80;;;1.20;;
19877;SDS011;10101;52.204;9.910;2023-02-27T11:26:28;2.80;;;1.30;;
19877;SDS011;10101;52.204;9.910;2023-02-27T11:29:03;3.60;;;1.63;;
19877;SDS011;10101;52.204;9.910;2023-02-27T11:31:33;4.33;;;1.40;;
19877;SDS011;10101;52.204;9.910;2023-02-27T11:34:01;3.77;;;1.60;;
19877;SDS011;10101;52.204;9.910;2023-02-27T11:36:39;3.43;;;1.20;;
19877;SDS011;10101;52.204;9.910;2023-02-27T11:39:15;3.27;;;1.50;;
19877;SDS011;10101;52.204;9.910;2023-02-27T11:41:48;6.27;;;1.60;;
19877;SDS011;10101;52.204;9.910;2023-02-27T11:44:16;4.20;;;1.77;;
19877;SDS011;10101;52.204;9.910;2023-02-27T11:46:48;4.27;;;1.57;;
19877;SDS011;10101;52.204;9.910;2023-02-27T11:49:20;4.27;;;1.80;;
19877;SDS011;10101;52.204;9.910;2023-02-27T11:51:55;3.70;;;1.97;;
19877;SDS011;10101;52.204;9.910;2023-02-27T11:54:31;2.70;;;1.40;;
19877;SDS011;10101;52.204;9.910;2023-02-27T11:57:03;4.80;;;1.70;;
19877;SDS011;10101;52.204;9.910;2023-02-27T11:59:43;3.43;;;1.90;;
19877;SDS011;10101;52.204;9.910;2023-02-27T12:02:16;2.83;;;1.80;;
19877;SDS011;10101;52.204;9.910;2023-02-27T12:04:48;3.30;;;1.53;;
19877;SDS011;10101;52.204;9.910;2023-02-27T12:07:21;3.17;;;1.37;;
19877;SDS011;10101;52.204;9.910;2023-02-27T12:09:54;4.60;;;2.90;;
19877;SDS011;10101;52.204;9.910;2023-02-27T12:12:28;5.60;;;2.60;;
19877;SDS011;10101;52.204;9.910;2023-02-27T12:15:00;4.13;;;2.07;;
19877;SDS011;10101;52.204;9.910;2023-02-27T12:17:38;9.10;;;2.37;;
19877;SDS011;10101;52.204;9.910;2023-02-27T12:20:22;7.27;;;2.40;;
19877;SDS011;10101;52.204;9.910;2023-02-27T12:22:57;3.27;;;1.80;;
19877;SDS011;10101;52.204;9.910;2023-02-27T12:25:34;3.40;;;1.97;;
19877;SDS011;10101;52.204;9.910;2023-02-27T12:28:07;5.07;;;2.00;;
19877;SDS011;10101;52.204;9.910;2023-02-27T12:30:47;4.53;;;2.20;;
19877;SDS011;10101;52.204;9.910;2023-02-27T12:33:23;4.83;;;2.33;;
19877;SDS011;10101;52.204;9.910;2023-02-27T12:36:00;4.70;;;1.90;;
19877;SDS011;10101;52.204;9.910;2023-02-27T12:38:28;4.53;;;1.80;;
19877;SDS011;10101;52.204;9.910;2023-02-27T12:41:00;5.63;;;2.20;;
19877;SDS011;10101;52.204;9.910;2023-02-27T12:43:37;4.03;;;2.13;;
19877;SDS011;10101;52.204;9.910;2023-02-27T12:46:19;4.20;;;1.80;;
19877;SDS011;10101;52.204;9.910;2023-02-27T12:48:57;8.10;;;2.20;;
19877;SDS011;10101;52.204;9.910;2023-02-27T12:51:42;4.37;;;1.60;;
19877;SDS011;10101;52.204;9.910;2023-02-27T12:54:18;3.87;;;1.83;;
19877;SDS011;10101;52.204;9.910;2023-02-27T12:57:00;2.30;;;1.40;;
19877;SDS011;10101;52.204;9.910;2023-02-27T12:59:51;4.00;;;1.33;;
19877;SDS011;10101;52.204;9.910;2023-02-27T13:05:23;1.60;;;1.40;;
19877;SDS011;10101;52.204;9.910;2023-02-27T13:08:12;5.10;;;1.80;;
19877;SDS011;10101;52.204;9.910;2023-02-27T13:10:47;4.53;;;1.50;;
19877;SDS011;10101;52.204;9.910;2023-02-27T13:13:18;3.73;;;1.60;;
19877;SDS011;10101;52.204;9.910;2023-02-27T13:15:51;2.53;;;1.30;;
19877;SDS011;10101;52.204;9.910;2023-02-27T13:18:27;3.47;;;1.47;;
19877;SDS011;10101;52.204;9.910;2023-02-27T13:21:01;3.73;;;1.40;;
19877;SDS011;10101;52.204;9.910;2023-02-27T13:23:34;2.77;;;1.43;;
19877;SDS011;10101;52.204;9.910;2023-02-27T13:26:12;2.93;;;1.23;;
19877;SDS011;10101;52.204;9.910;2023-02-27T13:28:44;3.23;;;1.40;;
19877;SDS011;10101;52.204;9.910;2023-02-27T13:31:13;4.60;;;1.60;;
19877;SDS011;10101;52.204;9.910;2023-02-27T13:33:51;2.50;;;1.40;;
19877;SDS011;10101;52.204;9.910;2023-02-27T13:36:26;2.67;;;1.20;;
19877;SDS011;10101;52.204;9.910;2023-02-27T13:38:58;7.03;;;1.40;;
19877;SDS011;10101;52.204;9.910;2023-02-27T13:41:32;4.50;;;1.57;;
19877;SDS011;10101;52.204;9.910;2023-02-27T13:53:12;2.63;;;1.20;;
19877;SDS011;10101;52.204;9.910;2023-02-27T13:55:46;8.20;;;1.60;;
19877;SDS011;10101;52.204;9.910;2023-02-27T13:58:15;2.27;;;1.20;;
19877;SDS011;10101;52.204;9.910;2023-02-27T14:00:52;4.33;;;1.17;;
19877;SDS011;10101;52.204;9.910;2023-02-27T14:03:22;2.83;;;1.37;;
19877;SDS011;10101;52.204;9.910;2023-02-27T14:05:51;2.20;;;1.03;;
19877;SDS011;10101;52.204;9.910;2023-02-27T14:08:23;3.17;;;1.10;;
19877;SDS011;10101;52.204;9.910;2023-02-27T14:10:56;3.80;;;1.20;;
19877;SDS011;10101;52.204;9.910;2023-02-27T14:16:51;3.67;;;1.40;;
19877;SDS011;10101;52.204;9.910;2023-02-27T14:25:36;1.93;;;1.20;;
19877;SDS011;10101;52.204;9.910;2023-02-27T14:28:11;3.23;;;1.43;;
19877;SDS011;10101;52.204;9.910;2023-02-27T14:30:50;2.43;;;1.20;;
19877;SDS011;10101;52.204;9.910;2023-02-27T14:33:20;5.33;;;1.43;;
19877;SDS011;10101;52.204;9.910;2023-02-27T14:35:50;3.23;;;1.20;;
19877;SDS011;10101;52.204;9.910;2023-02-27T14:38:24;3.33;;;1.30;;
19877;SDS011;10101;52.204;9.910;2023-02-27T14:41:04;3.07;;;1.10;;
19877;SDS011;10101;52.204;9.910;2023-02-27T14:43:37;3.43;;;1.30;;
19877;SDS011;10101;52.204;9.910;2023-02-27T14:46:06;4.13;;;1.50;;
19877;SDS011;10101;52.204;9.910;2023-02-27T14:48:39;4.30;;;1.27;;
19877;SDS011;10101;52.204;9.910;2023-02-27T14:51:06;5.33;;;1.50;;
19877;SDS011;10101;52.204;9.910;2023-02-27T14:53:33;2.60;;;1.40;;
19877;SDS011;10101;52.204;9.910;2023-02-27T14:56:00;3.03;;;1.23;;
19877;SDS011;10101;52.204;9.910;2023-02-27T14:58:28;2.70;;;1.20;;
19877;SDS011;10101;52.204;9.910;2023-02-27T15:00:59;2.00;;;1.10;;
19877;SDS011;10101;52.204;9.910;2023-02-27T15:03:33;4.73;;;1.63;;
19877;SDS011;10101;52.204;9.910;2023-02-27T15:06:03;2.33;;;1.17;;
19877;SDS011;10101;52.204;9.910;2023-02-27T15:08:44;5.13;;;1.30;;
19877;SDS011;10101;52.204;9.910;2023-02-27T15:11:14;4.20;;;1.33;;
19877;SDS011;10101;52.204;9.910;2023-02-27T15:13:44;2.43;;;1.30;;
19877;SDS011;10101;52.204;9.910;2023-02-27T15:16:16;3.17;;;1.20;;
19877;SDS011;10101;52.204;9.910;2023-02-27T15:18:45;2.70;;;1.17;;
19877;SDS011;10101;52.204;9.910;2023-02-27T15:21:14;2.97;;;1.33;;
19877;SDS011;10101;52.204;9.910;2023-02-27T15:23:42;1.80;;;1.13;;
19877;SDS011;10101;52.204;9.910;2023-02-27T15:26:18;2.83;;;1.10;;
19877;SDS011;10101;52.204;9.910;2023-02-27T15:28:46;2.93;;;1.13;;
19877;SDS011;10101;52.204;9.910;2023-02-27T15:31:16;2.77;;;1.40;;
19877;SDS011;10101;52.204;9.910;2023-02-27T15:33:45;1.33;;;1.00;;
19877;SDS011;10101;52.204;9.910;2023-02-27T15:36:15;3.53;;;1.30;;
19877;SDS011;10101;52.204;9.910;2023-02-27T15:38:45;2.00;;;1.17;;
19877;SDS011;10101;52.204;9.910;2023-02-27T15:41:12;3.57;;;1.20;;